sensor_id;sensor_type;location;lat;lon;timestamp;pressure;altitude;pressure_sealevel;temperature;humidity
57086;BME280;42964;42.910;23.792;2023-08-20T00:04:57;97925.00;;;18.59;81.52
57086;BME280;42964;42.910;23.792;2023-08-20T00:09:57;97868.25;;;18.24;81.79
57086;BME280;42964;42.910;23.792;2023-08-20T00:14:58;97919.88;;;18.55;81.76
57086;BME280;42964;42.910;23.792;2023-08-20T00:20:04;97921.66;;;18.54;81.79
57086;BME280;42964;42.910;23.792;2023-08-20T00:25:09;97930.31;;;18.58;81.72
57086;BME280;42964;42.910;23.792;2023-08-20T00:30:10;97918.00;;;18.60;82.08
57086;BME280;42964;42.910;23.792;2023-08-20T00:35:09;97911.91;;;18.58;82.14
57086;BME280;42964;42.910;23.792;2023-08-20T00:40:08;97916.38;;;18.54;82.06
57086;BME280;42964;42.910;23.792;2023-08-20T00:45:08;97909.53;;;18.50;81.90
57086;BME280;42964;42.910;23.792;2023-08-20T00:50:08;97907.88;;;18.46;82.26
57086;BME280;42964;42.910;23.792;2023-08-20T00:55:09;97883.88;;;18.29;82.79
57086;BME280;42964;42.910;23.792;2023-08-20T01:00:09;97848.13;;;17.95;83.34
57086;BME280;42964;42.910;23.792;2023-08-20T01:05:10;97900.69;;;18.23;83.30
57086;BME280;42964;42.910;23.792;2023-08-20T01:10:18;97912.31;;;18.14;83.23
57086;BME280;42964;42.910;23.792;2023-08-20T01:15:18;97911.81;;;18.02;83.70
57086;BME280;42964;42.910;23.792;2023-08-20T01:20:17;97914.47;;;18.00;83.69
57086;BME280;42964;42.910;23.792;2023-08-20T01:25:55;97910.22;;;17.96;83.54
57086;BME280;42964;42.910;23.792;2023-08-20T01:30:59;97866.41;;;17.65;83.68
57086;BME280;42964;42.910;23.792;2023-08-20T01:35:59;97910.22;;;17.96;83.72
57086;BME280;42964;42.910;23.792;2023-08-20T01:40:58;97903.25;;;17.95;83.62
57086;BME280;42964;42.910;23.792;2023-08-20T01:45:57;97897.28;;;17.90;83.60
57086;BME280;42964;42.910;23.792;2023-08-20T01:50:56;97891.25;;;17.86;84.00
57086;BME280;42964;42.910;23.792;2023-08-20T01:55:55;97878.38;;;17.77;84.90
57086;BME280;42964;42.910;23.792;2023-08-20T02:00:54;97875.22;;;17.64;85.67
57086;BME280;42964;42.910;23.792;2023-08-20T02:05:53;97874.63;;;17.53;86.00
57086;BME280;42964;42.910;23.792;2023-08-20T02:11:00;97873.81;;;17.51;85.50
57086;BME280;42964;42.910;23.792;2023-08-20T02:16:03;97872.09;;;17.50;85.71
57086;BME280;42964;42.910;23.792;2023-08-20T02:21:02;97866.03;;;17.48;85.53
57086;BME280;42964;42.910;23.792;2023-08-20T02:26:01;97868.72;;;17.45;85.61
57086;BME280;42964;42.910;23.792;2023-08-20T02:31:04;97864.34;;;17.45;85.85
57086;BME280;42964;42.910;23.792;2023-08-20T02:36:03;97823.25;;;17.11;86.01
57086;BME280;42964;42.910;23.792;2023-08-20T02:41:02;97874.03;;;17.43;86.00
57086;BME280;42964;42.910;23.792;2023-08-20T02:46:01;97874.16;;;17.39;86.54
57086;BME280;42964;42.910;23.792;2023-08-20T02:51:01;97879.47;;;17.35;86.63
57086;BME280;42964;42.910;23.792;2023-08-20T02:56:00;97867.59;;;17.21;86.60
57086;BME280;42964;42.910;23.792;2023-08-20T03:00:58;97895.72;;;17.16;87.33
57086;BME280;42964;42.910;23.792;2023-08-20T03:05:58;97900.25;;;17.09;87.36
57086;BME280;42964;42.910;23.792;2023-08-20T03:10:57;97896.03;;;17.03;87.34
57086;BME280;42964;42.910;23.792;2023-08-20T03:15:56;97899.50;;;17.04;87.58
57086;BME280;42964;42.910;23.792;2023-08-20T03:20:56;97904.88;;;16.98;87.90
57086;BME280;42964;42.910;23.792;2023-08-20T03:25:57;97843.66;;;16.63;87.51
57086;BME280;42964;42.910;23.792;2023-08-20T03:31:00;97891.06;;;16.91;87.69
57086;BME280;42964;42.910;23.792;2023-08-20T03:35:59;97893.75;;;16.89;87.94
57086;BME280;42964;42.910;23.792;2023-08-20T03:40:58;97897.25;;;16.88;88.03
57086;BME280;42964;42.910;23.792;2023-08-20T03:45:57;97904.22;;;16.89;88.20
57086;BME280;42964;42.910;23.792;2023-08-20T03:50:56;97894.69;;;16.85;88.28
57086;BME280;42964;42.910;23.792;2023-08-20T03:55:55;97900.63;;;16.93;88.23
57086;BME280;42964;42.910;23.792;2023-08-20T04:00:55;97904.94;;;16.96;87.93
57086;BME280;42964;42.910;23.792;2023-08-20T04:05:54;97898.69;;;17.00;87.94
57086;BME280;42964;42.910;23.792;2023-08-20T04:10:53;97904.75;;;17.04;87.54
57086;BME280;42964;42.910;23.792;2023-08-20T04:15:52;97901.16;;;17.08;87.42
57086;BME280;42964;42.910;23.792;2023-08-20T04:20:52;97882.22;;;16.97;87.07
57086;BME280;42964;42.910;23.792;2023-08-20T04:25:51;97916.69;;;17.16;86.94
57086;BME280;42964;42.910;23.792;2023-08-20T04:30:52;97903.69;;;17.11;87.01
57086;BME280;42964;42.910;23.792;2023-08-20T04:35:53;97919.66;;;17.02;88.07
57086;BME280;42964;42.910;23.792;2023-08-20T04:40:52;97921.09;;;17.15;87.67
57086;BME280;42964;42.910;23.792;2023-08-20T04:45:51;97924.41;;;17.22;87.70
57086;BME280;42964;42.910;23.792;2023-08-20T04:50:50;97929.44;;;17.31;87.87
57086;BME280;42964;42.910;23.792;2023-08-20T04:55:49;97922.13;;;17.42;87.55
57086;BME280;42964;42.910;23.792;2023-08-20T05:00:48;97930.59;;;17.53;87.76
57086;BME280;42964;42.910;23.792;2023-08-20T05:05:50;97911.03;;;17.65;86.85
57086;BME280;42964;42.910;23.792;2023-08-20T05:10:49;97914.00;;;17.86;86.57
57086;BME280;42964;42.910;23.792;2023-08-20T05:15:49;97931.09;;;18.01;86.71
57086;BME280;42964;42.910;23.792;2023-08-20T05:20:48;97920.88;;;18.21;85.66
57086;BME280;42964;42.910;23.792;2023-08-20T05:25:47;97932.63;;;18.39;84.83
57086;BME280;42964;42.910;23.792;2023-08-20T05:30:54;97932.84;;;18.61;84.07
57086;BME280;42964;42.910;23.792;2023-08-20T05:35:53;97947.13;;;18.82;83.95
57086;BME280;42964;42.910;23.792;2023-08-20T05:40:52;97942.69;;;19.11;83.62
57086;BME280;42964;42.910;23.792;2023-08-20T05:45:51;97934.81;;;19.37;81.48
57086;BME280;42964;42.910;23.792;2023-08-20T05:50:50;97922.91;;;19.52;80.39
57086;BME280;42964;42.910;23.792;2023-08-20T05:55:49;97947.22;;;19.85;79.73
57086;BME280;42964;42.910;23.792;2023-08-20T06:00:48;97947.00;;;20.17;78.53
57086;BME280;42964;42.910;23.792;2023-08-20T06:05:47;97939.84;;;20.44;77.44
57086;BME280;42964;42.910;23.792;2023-08-20T06:10:46;97946.72;;;20.71;76.29
57086;BME280;42964;42.910;23.792;2023-08-20T06:15:45;97931.75;;;20.72;74.25
57086;BME280;42964;42.910;23.792;2023-08-20T06:20:44;97949.13;;;21.00;74.07
57086;BME280;42964;42.910;23.792;2023-08-20T06:25:43;97952.38;;;21.06;74.46
57086;BME280;42964;42.910;23.792;2023-08-20T06:30:42;97946.06;;;21.10;74.13
57086;BME280;42964;42.910;23.792;2023-08-20T06:35:41;97950.72;;;21.26;74.25
57086;BME280;42964;42.910;23.792;2023-08-20T06:40:42;97903.81;;;21.32;73.51
57086;BME280;42964;42.910;23.792;2023-08-20T06:45:41;97953.56;;;21.84;71.60
57086;BME280;42964;42.910;23.792;2023-08-20T06:50:41;97916.63;;;21.83;69.72
57086;BME280;42964;42.910;23.792;2023-08-20T06:55:40;97949.75;;;22.12;69.22
57086;BME280;42964;42.910;23.792;2023-08-20T07:00:39;97953.63;;;22.24;68.69
57086;BME280;42964;42.910;23.792;2023-08-20T07:05:38;97949.00;;;22.48;67.19
57086;BME280;42964;42.910;23.792;2023-08-20T07:10:37;97953.03;;;22.75;66.14
57086;BME280;42964;42.910;23.792;2023-08-20T07:15:36;97953.50;;;23.02;65.26
57086;BME280;42964;42.910;23.792;2023-08-20T07:20:35;97957.69;;;23.26;63.77
57086;BME280;42964;42.910;23.792;2023-08-20T07:25:36;97939.63;;;23.34;62.06
57086;BME280;42964;42.910;23.792;2023-08-20T07:30:36;97920.50;;;23.63;61.57
57086;BME280;42964;42.910;23.792;2023-08-20T07:35:35;97939.47;;;24.06;59.45
57086;BME280;42964;42.910;23.792;2023-08-20T07:40:34;97904.50;;;24.16;58.73
57086;BME280;42964;42.910;23.792;2023-08-20T07:45:33;97951.31;;;24.66;57.59
57086;BME280;42964;42.910;23.792;2023-08-20T07:50:32;97899.69;;;24.56;57.13
57086;BME280;42964;42.910;23.792;2023-08-20T07:55:31;97924.75;;;24.99;56.77
57086;BME280;42964;42.910;23.792;2023-08-20T08:00:30;97933.66;;;25.28;56.09
57086;BME280;42964;42.910;23.792;2023-08-20T08:05:29;97903.44;;;25.15;54.92
57086;BME280;42964;42.910;23.792;2023-08-20T08:10:28;97898.94;;;25.31;54.17
57086;BME280;42964;42.910;23.792;2023-08-20T08:15:27;97929.41;;;25.86;53.54
57086;BME280;42964;42.910;23.792;2023-08-20T08:20:26;97921.25;;;26.04;53.31
57086;BME280;42964;42.910;23.792;2023-08-20T08:25:26;97918.81;;;26.29;52.94
57086;BME280;42964;42.910;23.792;2023-08-20T08:30:25;97926.69;;;26.60;51.91
57086;BME280;42964;42.910;23.792;2023-08-20T08:35:24;97921.69;;;26.82;50.90
57086;BME280;42964;42.910;23.792;2023-08-20T08:40:28;97888.31;;;26.76;47.55
57086;BME280;42964;42.910;23.792;2023-08-20T08:45:28;97912.28;;;27.18;46.82
57086;BME280;42964;42.910;23.792;2023-08-20T08:50:28;97873.91;;;27.20;46.15
57086;BME280;42964;42.910;23.792;2023-08-20T08:55:28;97916.69;;;27.59;43.96
57086;BME280;42964;42.910;23.792;2023-08-20T09:00:27;97884.44;;;27.49;42.69
57086;BME280;42964;42.910;23.792;2023-08-20T09:05:26;97901.03;;;27.93;41.33
57086;BME280;42964;42.910;23.792;2023-08-20T09:10:26;97896.34;;;28.22;40.43
57086;BME280;42964;42.910;23.792;2023-08-20T09:15:33;97897.94;;;28.37;39.92
57086;BME280;42964;42.910;23.792;2023-08-20T09:20:38;97888.56;;;28.32;38.19
57086;BME280;42964;42.910;23.792;2023-08-20T09:25:37;97896.09;;;28.38;38.80
57086;BME280;42964;42.910;23.792;2023-08-20T09:30:36;97836.69;;;28.23;37.75
57086;BME280;42964;42.910;23.792;2023-08-20T09:35:38;97854.25;;;28.38;37.09
57086;BME280;42964;42.910;23.792;2023-08-20T09:40:37;97890.41;;;28.68;37.44
57086;BME280;42964;42.910;23.792;2023-08-20T09:45:37;97883.13;;;28.70;36.74
57086;BME280;42964;42.910;23.792;2023-08-20T09:50:37;97884.56;;;28.87;37.08
57086;BME280;42964;42.910;23.792;2023-08-20T09:55:38;97889.06;;;28.86;37.55
57086;BME280;42964;42.910;23.792;2023-08-20T10:00:38;97861.31;;;29.00;36.14
57086;BME280;42964;42.910;23.792;2023-08-20T10:05:38;97889.88;;;29.00;37.57
57086;BME280;42964;42.910;23.792;2023-08-20T10:10:37;97896.75;;;28.91;37.60
57086;BME280;42964;42.910;23.792;2023-08-20T10:15:37;97699.97;;;27.70;36.91
57086;BME280;42964;42.910;23.792;2023-08-20T10:20:39;97871.63;;;28.94;37.29
57086;BME280;42964;42.910;23.792;2023-08-20T10:25:42;97874.59;;;29.26;37.34
57086;BME280;42964;42.910;23.792;2023-08-20T10:31:10;97868.59;;;29.46;35.55
57086;BME280;42964;42.910;23.792;2023-08-20T10:36:18;97870.13;;;29.38;35.39
57086;BME280;42964;42.910;23.792;2023-08-20T10:41:28;97867.50;;;29.49;35.07
57086;BME280;42964;42.910;23.792;2023-08-20T10:46:28;97861.59;;;29.79;34.84
57086;BME280;42964;42.910;23.792;2023-08-20T10:51:35;97853.06;;;29.74;35.30
57086;BME280;42964;42.910;23.792;2023-08-20T10:56:53;97857.25;;;29.89;34.15
57086;BME280;42964;42.910;23.792;2023-08-20T11:01:56;97823.22;;;29.91;34.06
57086;BME280;42964;42.910;23.792;2023-08-20T11:06:56;97822.72;;;30.09;33.84
57086;BME280;42964;42.910;23.792;2023-08-20T11:11:57;97832.22;;;30.47;34.35
57086;BME280;42964;42.910;23.792;2023-08-20T11:16:57;97829.28;;;30.50;32.65
57086;BME280;42964;42.910;23.792;2023-08-20T11:21:56;97830.47;;;30.57;32.62
57086;BME280;42964;42.910;23.792;2023-08-20T11:26:55;97820.66;;;30.79;32.75
57086;BME280;42964;42.910;23.792;2023-08-20T11:31:54;97817.06;;;31.01;32.32
57086;BME280;42964;42.910;23.792;2023-08-20T11:36:54;97781.47;;;30.78;31.24
57086;BME280;42964;42.910;23.792;2023-08-20T11:41:53;97764.13;;;30.82;31.77
57086;BME280;42964;42.910;23.792;2023-08-20T11:46:53;97689.00;;;30.62;30.20
57086;BME280;42964;42.910;23.792;2023-08-20T11:51:52;97772.72;;;31.29;30.53
57086;BME280;42964;42.910;23.792;2023-08-20T11:56:52;97796.13;;;31.27;29.84
57086;BME280;42964;42.910;23.792;2023-08-20T12:01:59;97774.91;;;31.66;30.33
57086;BME280;42964;42.910;23.792;2023-08-20T12:07:14;97777.06;;;31.72;29.69
57086;BME280;42964;42.910;23.792;2023-08-20T12:12:13;97781.44;;;31.73;29.92
57086;BME280;42964;42.910;23.792;2023-08-20T12:17:12;97684.84;;;31.42;28.56
57086;BME280;42964;42.910;23.792;2023-08-20T12:22:11;97718.84;;;31.63;28.02
57086;BME280;42964;42.910;23.792;2023-08-20T12:27:10;97686.69;;;31.42;27.97
57086;BME280;42964;42.910;23.792;2023-08-20T12:32:09;97756.09;;;31.87;27.83
57086;BME280;42964;42.910;23.792;2023-08-20T12:37:08;97751.47;;;31.98;27.26
57086;BME280;42964;42.910;23.792;2023-08-20T12:42:07;97749.59;;;31.89;26.95
57086;BME280;42964;42.910;23.792;2023-08-20T12:47:06;97746.75;;;32.21;26.12
57086;BME280;42964;42.910;23.792;2023-08-20T12:52:05;97741.78;;;32.07;26.76
57086;BME280;42964;42.910;23.792;2023-08-20T12:57:04;97735.78;;;32.34;26.58
57086;BME280;42964;42.910;23.792;2023-08-20T13:02:03;97735.06;;;32.32;25.79
57086;BME280;42964;42.910;23.792;2023-08-20T13:07:03;97725.28;;;32.31;26.79
57086;BME280;42964;42.910;23.792;2023-08-20T13:12:03;97698.72;;;32.28;26.23
57086;BME280;42964;42.910;23.792;2023-08-20T13:17:04;97676.34;;;32.08;26.17
57086;BME280;42964;42.910;23.792;2023-08-20T13:22:04;97707.63;;;32.29;25.85
57086;BME280;42964;42.910;23.792;2023-08-20T13:27:03;97716.97;;;32.44;25.86
57086;BME280;42964;42.910;23.792;2023-08-20T13:32:02;97687.13;;;32.18;26.46
57086;BME280;42964;42.910;23.792;2023-08-20T13:37:01;97684.88;;;32.23;27.37
57086;BME280;42964;42.910;23.792;2023-08-20T13:42:00;97673.72;;;32.57;26.51
57086;BME280;42964;42.910;23.792;2023-08-20T13:46:59;97697.88;;;32.37;26.51
57086;BME280;42964;42.910;23.792;2023-08-20T13:51:58;97709.63;;;32.46;27.02
57086;BME280;42964;42.910;23.792;2023-08-20T13:56:57;97708.22;;;32.52;27.44
57086;BME280;42964;42.910;23.792;2023-08-20T14:01:56;97589.69;;;31.87;26.64
57086;BME280;42964;42.910;23.792;2023-08-20T14:06:55;97698.03;;;32.55;27.87
57086;BME280;42964;42.910;23.792;2023-08-20T14:11:54;97683.03;;;32.33;27.91
57086;BME280;42964;42.910;23.792;2023-08-20T14:16:53;97707.63;;;32.48;28.00
57086;BME280;42964;42.910;23.792;2023-08-20T14:21:52;97710.75;;;32.53;27.73
57086;BME280;42964;42.910;23.792;2023-08-20T14:26:51;97702.53;;;32.45;28.60
57086;BME280;42964;42.910;23.792;2023-08-20T14:31:50;97712.16;;;32.48;27.85
57086;BME280;42964;42.910;23.792;2023-08-20T14:36:49;97700.56;;;32.37;27.68
57086;BME280;42964;42.910;23.792;2023-08-20T14:41:48;97709.34;;;32.49;28.25
57086;BME280;42964;42.910;23.792;2023-08-20T14:46:47;97712.44;;;32.25;28.20
57086;BME280;42964;42.910;23.792;2023-08-20T14:51:46;97723.72;;;32.38;28.11
57086;BME280;42964;42.910;23.792;2023-08-20T14:56:46;97667.13;;;31.91;28.34
57086;BME280;42964;42.910;23.792;2023-08-20T15:01:44;97689.28;;;31.93;28.67
57086;BME280;42964;42.910;23.792;2023-08-20T15:06:43;97720.31;;;32.17;28.65
57086;BME280;42964;42.910;23.792;2023-08-20T15:11:42;97722.84;;;32.09;29.18
57086;BME280;42964;42.910;23.792;2023-08-20T15:16:41;97713.75;;;32.00;28.84
57086;BME280;42964;42.910;23.792;2023-08-20T15:21:41;97725.34;;;32.00;29.14
57086;BME280;42964;42.910;23.792;2023-08-20T15:26:40;97725.78;;;32.06;29.53
57086;BME280;42964;42.910;23.792;2023-08-20T15:31:39;97700.44;;;31.89;29.16
57086;BME280;42964;42.910;23.792;2023-08-20T15:36:38;97655.72;;;31.58;29.74
57086;BME280;42964;42.910;23.792;2023-08-20T15:41:37;97725.97;;;32.04;28.72
57086;BME280;42964;42.910;23.792;2023-08-20T15:46:36;97719.53;;;31.95;29.19
57086;BME280;42964;42.910;23.792;2023-08-20T15:51:35;97716.25;;;31.92;29.62
57086;BME280;42964;42.910;23.792;2023-08-20T15:56:38;97715.91;;;31.66;29.30
57086;BME280;42964;42.910;23.792;2023-08-20T16:01:37;97719.28;;;31.68;29.28
57086;BME280;42964;42.910;23.792;2023-08-20T16:06:37;97672.47;;;31.20;29.71
57086;BME280;42964;42.910;23.792;2023-08-20T16:11:36;97726.50;;;31.46;30.12
57086;BME280;42964;42.910;23.792;2023-08-20T16:16:34;97731.00;;;31.36;30.20
57086;BME280;42964;42.910;23.792;2023-08-20T16:21:33;97698.69;;;31.16;30.22
57086;BME280;42964;42.910;23.792;2023-08-20T16:26:32;97728.63;;;31.22;30.51
57086;BME280;42964;42.910;23.792;2023-08-20T16:31:31;97727.81;;;30.89;30.61
57086;BME280;42964;42.910;23.792;2023-08-20T16:36:30;97743.66;;;30.92;31.45
57086;BME280;42964;42.910;23.792;2023-08-20T16:41:30;97746.09;;;30.84;31.42
57086;BME280;42964;42.910;23.792;2023-08-20T16:46:29;97736.94;;;30.65;31.73
57086;BME280;42964;42.910;23.792;2023-08-20T16:51:29;97755.09;;;30.62;32.38
57086;BME280;42964;42.910;23.792;2023-08-20T16:56:28;97763.81;;;30.43;32.14
57086;BME280;42964;42.910;23.792;2023-08-20T17:01:27;97763.72;;;30.22;32.83
57086;BME280;42964;42.910;23.792;2023-08-20T17:06:26;97770.28;;;30.06;32.90
57086;BME280;42964;42.910;23.792;2023-08-20T17:11:25;97775.41;;;29.87;33.48
57086;BME280;42964;42.910;23.792;2023-08-20T17:16:24;97771.84;;;29.64;34.43
57086;BME280;42964;42.910;23.792;2023-08-20T17:21:23;97779.97;;;29.40;35.61
57086;BME280;42964;42.910;23.792;2023-08-20T17:26:22;97756.84;;;28.81;35.63
57086;BME280;42964;42.910;23.792;2023-08-20T17:31:21;97761.38;;;28.67;36.92
57086;BME280;42964;42.910;23.792;2023-08-20T17:36:20;97774.66;;;28.56;38.48
57086;BME280;42964;42.910;23.792;2023-08-20T17:41:19;97750.47;;;28.10;39.03
57086;BME280;42964;42.910;23.792;2023-08-20T17:46:18;97762.91;;;27.85;39.26
57086;BME280;42964;42.910;23.792;2023-08-20T17:51:17;97798.31;;;27.74;39.92
57086;BME280;42964;42.910;23.792;2023-08-20T17:56:16;97808.41;;;27.44;40.62
57086;BME280;42964;42.910;23.792;2023-08-20T18:01:15;97809.97;;;27.20;41.07
57086;BME280;42964;42.910;23.792;2023-08-20T18:06:14;97812.28;;;26.99;42.01
57086;BME280;42964;42.910;23.792;2023-08-20T18:11:13;97821.75;;;26.76;42.39
57086;BME280;42964;42.910;23.792;2023-08-20T18:16:12;97803.75;;;26.40;42.39
57086;BME280;42964;42.910;23.792;2023-08-20T18:21:11;97822.00;;;26.32;43.01
57086;BME280;42964;42.910;23.792;2023-08-20T18:26:10;97839.41;;;26.23;43.20
57086;BME280;42964;42.910;23.792;2023-08-20T18:31:09;97839.50;;;25.93;44.19
57086;BME280;42964;42.910;23.792;2023-08-20T18:36:07;97843.94;;;25.78;44.58
57086;BME280;42964;42.910;23.792;2023-08-20T18:41:08;97844.88;;;25.63;45.20
57086;BME280;42964;42.910;23.792;2023-08-20T18:46:14;97822.78;;;25.18;46.25
57086;BME280;42964;42.910;23.792;2023-08-20T18:51:13;97862.34;;;25.22;47.19
57086;BME280;42964;42.910;23.792;2023-08-20T18:56:16;97853.72;;;25.03;47.50
57086;BME280;42964;42.910;23.792;2023-08-20T19:01:15;97841.34;;;24.72;48.55
57086;BME280;42964;42.910;23.792;2023-08-20T19:06:14;97865.81;;;24.61;49.17
57086;BME280;42964;42.910;23.792;2023-08-20T19:11:13;97875.22;;;24.51;49.03
57086;BME280;42964;42.910;23.792;2023-08-20T19:16:11;97876.53;;;24.43;48.78
57086;BME280;42964;42.910;23.792;2023-08-20T19:21:10;97829.84;;;24.08;49.02
57086;BME280;42964;42.910;23.792;2023-08-20T19:26:09;97864.72;;;24.16;49.78
57086;BME280;42964;42.910;23.792;2023-08-20T19:31:09;97850.53;;;24.01;50.16
57086;BME280;42964;42.910;23.792;2023-08-20T19:36:08;97870.00;;;24.00;51.40
57086;BME280;42964;42.910;23.792;2023-08-20T19:41:07;97853.41;;;23.96;51.41
57086;BME280;42964;42.910;23.792;2023-08-20T19:46:06;97877.69;;;24.04;51.83
57086;BME280;42964;42.910;23.792;2023-08-20T19:51:05;97896.75;;;23.95;51.79
57086;BME280;42964;42.910;23.792;2023-08-20T19:56:04;97889.53;;;23.81;51.34
57086;BME280;42964;42.910;23.792;2023-08-20T20:01:06;97735.78;;;22.82;51.81
57086;BME280;42964;42.910;23.792;2023-08-20T20:06:05;97861.31;;;23.47;51.51
57086;BME280;42964;42.910;23.792;2023-08-20T20:11:04;97855.03;;;23.31;51.68
57086;BME280;42964;42.910;23.792;2023-08-20T20:16:03;97849.59;;;23.16;51.82
57086;BME280;42964;42.910;23.792;2023-08-20T20:21:02;97838.28;;;22.95;52.11
57086;BME280;42964;42.910;23.792;2023-08-20T20:26:04;97887.97;;;23.08;52.20
57086;BME280;42964;42.910;23.792;2023-08-20T20:31:04;97910.63;;;23.13;52.65
57086;BME280;42964;42.910;23.792;2023-08-20T20:36:05;97876.81;;;22.84;52.82
57086;BME280;42964;42.910;23.792;2023-08-20T20:41:07;97896.66;;;22.92;54.81
57086;BME280;42964;42.910;23.792;2023-08-20T20:46:06;97921.53;;;23.07;55.83
57086;BME280;42964;42.910;23.792;2023-08-20T20:51:05;97879.56;;;22.62;56.41
57086;BME280;42964;42.910;23.792;2023-08-20T20:56:04;97872.22;;;22.49;57.16
57086;BME280;42964;42.910;23.792;2023-08-20T21:01:03;97931.19;;;22.70;57.37
57086;BME280;42964;42.910;23.792;2023-08-20T21:06:06;97921.03;;;22.61;58.04
57086;BME280;42964;42.910;23.792;2023-08-20T21:11:05;97933.00;;;22.51;58.10
57086;BME280;42964;42.910;23.792;2023-08-20T21:16:04;97928.97;;;22.42;57.97
57086;BME280;42964;42.910;23.792;2023-08-20T21:21:03;97913.91;;;22.25;57.35
57086;BME280;42964;42.910;23.792;2023-08-20T21:26:03;97941.13;;;22.27;57.25
57086;BME280;42964;42.910;23.792;2023-08-20T21:31:02;97939.53;;;22.23;57.98
57086;BME280;42964;42.910;23.792;2023-08-20T21:36:01;97950.38;;;22.17;58.97
57086;BME280;42964;42.910;23.792;2023-08-20T21:41:00;97954.50;;;22.04;61.25
57086;BME280;42964;42.910;23.792;2023-08-20T21:45:59;97923.84;;;21.79;61.29
57086;BME280;42964;42.910;23.792;2023-08-20T21:50:58;97961.28;;;21.89;61.55
57086;BME280;42964;42.910;23.792;2023-08-20T21:55:57;97934.34;;;21.60;62.41
57086;BME280;42964;42.910;23.792;2023-08-20T22:00:56;97939.03;;;21.53;62.55
57086;BME280;42964;42.910;23.792;2023-08-20T22:05:55;97961.41;;;21.65;62.75
57086;BME280;42964;42.910;23.792;2023-08-20T22:10:57;97940.47;;;21.40;63.11
57086;BME280;42964;42.910;23.792;2023-08-20T22:15:57;97935.63;;;21.29;64.41
57086;BME280;42964;42.910;23.792;2023-08-20T22:20:56;97951.41;;;21.31;65.00
57086;BME280;42964;42.910;23.792;2023-08-20T22:25:54;97952.81;;;21.18;65.99
57086;BME280;42964;42.910;23.792;2023-08-20T22:30:54;97958.56;;;21.05;66.40
57086;BME280;42964;42.910;23.792;2023-08-20T22:35:53;97965.09;;;20.97;66.76
57086;BME280;42964;42.910;23.792;2023-08-20T22:40:52;97932.41;;;20.77;66.58
57086;BME280;42964;42.910;23.792;2023-08-20T22:45:51;97957.56;;;20.86;66.77
57086;BME280;42964;42.910;23.792;2023-08-20T22:50:51;97949.00;;;20.81;67.38
57086;BME280;42964;42.910;23.792;2023-08-20T22:55:50;97953.50;;;20.77;67.67
57086;BME280;42964;42.910;23.792;2023-08-20T23:00:49;97951.19;;;20.69;67.79
57086;BME280;42964;42.910;23.792;2023-08-20T23:05:48;97908.53;;;20.35;67.96
57086;BME280;42964;42.910;23.792;2023-08-20T23:10:47;97949.69;;;20.62;68.12
57086;BME280;42964;42.910;23.792;2023-08-20T23:15:47;97950.06;;;20.53;68.54
57086;BME280;42964;42.910;23.792;2023-08-20T23:21:00;97929.44;;;20.41;68.63
57086;BME280;42964;42.910;23.792;2023-08-20T23:25:59;97968.34;;;20.58;69.80
57086;BME280;42964;42.910;23.792;2023-08-20T23:30:58;97938.81;;;20.24;71.43
57086;BME280;42964;42.910;23.792;2023-08-20T23:35:57;97956.09;;;20.32;71.16
57086;BME280;42964;42.910;23.792;2023-08-20T23:40:56;97957.22;;;20.26;71.15
57086;BME280;42964;42.910;23.792;2023-08-20T23:45:55;97959.06;;;20.22;71.25
57086;BME280;42964;42.910;23.792;2023-08-20T23:50:54;97965.50;;;20.15;71.52
57086;BME280;42964;42.910;23.792;2023-08-20T23:55:53;97946.84;;;19.96;71.88
